Time;durP1;ratioP1;P1;durP2;ratioP2;P2;SDS_P1;SDS_P2;PMS_P1;PMS_P2;Temp;Humidity;BMP_temperature;BMP_pressure;BME280_temperature;BME280_humidity;BME280_pressure;Samples;Min_cycle;Max_cycle;Signal;HPM_P1;HPM_P2
2022/07/06 00:02:11;;;;;;;6.93;4.18;;;;;;;14.46;69.69;101728.13;5106098;28;20071;-79
2022/07/06 00:04:38;;;;;;;7.22;4.30;;;;;;;14.44;69.81;101731.91;5106040;28;20048;-80
2022/07/06 00:07:04;;;;;;;6.18;4.45;;;;;;;14.35;70.09;101727.50;5106179;28;20170;-80
2022/07/06 00:09:31;;;;;;;7.70;5.03;;;;;;;14.27;70.58;101734.38;5105693;28;20063;-83
2022/07/06 00:11:58;;;;;;;7.70;4.55;;;;;;;14.20;70.73;101737.75;5105496;28;20407;-82
2022/07/06 00:14:24;;;;;;;7.60;4.82;;;;;;;14.09;71.16;101730.13;5105293;28;20131;-81
2022/07/06 00:16:52;;;;;;;7.30;4.63;;;;;;;13.95;71.74;101734.13;5104268;28;20090;-80
2022/07/06 00:19:19;;;;;;;5.57;4.53;;;;;;;13.99;71.79;101732.84;5104083;28;20071;-81
2022/07/06 00:21:46;;;;;;;9.75;4.63;;;;;;;13.88;72.20;101728.63;5103379;28;20052;-82
2022/07/06 00:24:12;;;;;;;7.68;4.88;;;;;;;13.87;72.45;101723.50;5104293;28;20080;-80
2022/07/06 00:26:39;;;;;;;10.50;5.40;;;;;;;13.76;72.62;101719.31;5104831;28;20115;-82
2022/07/06 00:29:06;;;;;;;8.80;4.55;;;;;;;13.68;72.94;101721.88;5103323;28;20044;-80
2022/07/06 00:31:32;;;;;;;11.27;4.70;;;;;;;13.70;73.04;101719.09;5104622;28;20094;-81
2022/07/06 00:34:00;;;;;;;8.13;4.78;;;;;;;13.70;72.82;101719.09;5102752;28;20444;-82
2022/07/06 00:36:27;;;;;;;7.88;4.80;;;;;;;13.67;73.04;101724.66;5105774;28;20067;-81
2022/07/06 00:38:54;;;;;;;9.60;4.70;;;;;;;13.65;73.15;101727.44;5105663;28;20040;-82
2022/07/06 00:41:21;;;;;;;8.75;4.90;;;;;;;13.51;73.39;101722.69;5105504;28;20064;-79
2022/07/06 00:43:49;;;;;;;9.35;5.13;;;;;;;13.42;73.63;101724.38;5104800;28;20048;-80
2022/07/06 00:46:15;;;;;;;8.48;5.10;;;;;;;13.38;74.02;101720.41;5105200;28;20420;-83
2022/07/06 00:48:42;;;;;;;7.45;5.13;;;;;;;13.38;73.94;101730.09;5103856;28;20532;-80
2022/07/06 00:51:11;;;;;;;8.95;5.30;;;;;;;13.36;73.73;101732.88;5103353;28;20076;-80
2022/07/06 00:53:38;;;;;;;8.77;6.00;;;;;;;13.41;73.78;101735.88;5113939;28;20079;-83
2022/07/06 00:56:05;;;;;;;8.50;5.65;;;;;;;13.37;73.93;101733.69;5125003;28;20043;-84
2022/07/06 00:58:32;;;;;;;8.25;5.38;;;;;;;13.31;73.93;101735.09;5135742;28;20071;-83
2022/07/06 01:00:58;;;;;;;7.57;5.45;;;;;;;13.22;73.87;101725.50;5129451;28;20058;-79
2022/07/06 01:03:25;;;;;;;8.05;5.32;;;;;;;13.13;74.59;101732.41;5120255;28;20515;-78
2022/07/06 01:05:51;;;;;;;9.13;5.82;;;;;;;13.18;74.53;101734.66;5121078;28;20067;-80
2022/07/06 01:08:20;;;;;;;9.68;5.72;;;;;;;13.10;74.69;101737.13;5119584;28;20488;-81
2022/07/06 01:10:47;;;;;;;7.68;5.47;;;;;;;13.05;74.85;101734.94;5119661;28;20048;-81
2022/07/06 01:13:13;;;;;;;7.35;5.30;;;;;;;13.02;75.20;101737.03;5119612;28;20059;-79
2022/07/06 01:15:40;;;;;;;8.35;5.53;;;;;;;12.89;75.76;101738.19;5119186;28;20040;-79
2022/07/06 01:18:07;;;;;;;7.30;5.40;;;;;;;12.84;75.81;101739.56;5119422;28;20096;-82
2022/07/06 01:20:35;;;;;;;8.13;5.03;;;;;;;12.82;75.84;101742.34;5119993;28;20043;-79
2022/07/06 01:23:01;;;;;;;10.80;5.63;;;;;;;12.84;75.79;101747.47;5119109;28;20055;-80
2022/07/06 01:25:28;;;;;;;10.68;5.90;;;;;;;12.77;76.08;101734.06;5118222;28;20150;-80
2022/07/06 01:27:55;;;;;;;9.77;5.97;;;;;;;12.72;76.53;101735.50;5117506;28;20107;-81
2022/07/06 01:30:21;;;;;;;13.13;5.32;;;;;;;12.65;76.78;101727.34;5119169;28;20062;-81
2022/07/06 01:32:48;;;;;;;9.38;5.72;;;;;;;12.66;76.86;101739.53;5119390;28;20138;-81
2022/07/06 01:35:16;;;;;;;9.82;5.60;;;;;;;12.60;76.83;101737.47;5120319;28;20067;-82
2022/07/06 01:37:44;;;;;;;10.20;5.57;;;;;;;12.58;77.28;101732.34;5119684;28;20464;-82
2022/07/06 01:40:13;;;;;;;9.82;5.40;;;;;;;12.65;76.79;101732.59;5120373;28;20083;-82
2022/07/06 01:42:40;;;;;;;6.63;5.13;;;;;;;12.65;76.90;101732.59;5119938;28;20458;-81
2022/07/06 01:45:08;;;;;;;8.40;4.72;;;;;;;12.64;76.86;101736.19;5121362;28;20075;-80
2022/07/06 01:47:35;;;;;;;10.00;5.60;;;;;;;12.58;77.18;101739.41;5120695;28;20087;-82
2022/07/06 01:50:04;;;;;;;8.93;5.50;;;;;;;12.50;77.37;101728.78;5122276;28;20127;-81
2022/07/06 01:52:30;;;;;;;7.75;5.22;;;;;;;12.48;77.44;101722.84;5123794;28;20052;-80
2022/07/06 01:54:58;;;;;;;8.75;5.32;;;;;;;12.41;77.59;101732.25;5124026;28;20044;-83
2022/07/06 01:57:25;;;;;;;6.10;4.80;;;;;;;12.43;77.43;101725.06;5122522;28;20134;-81
2022/07/06 01:59:52;;;;;;;6.93;5.00;;;;;;;12.41;77.28;101727.00;5121860;28;20082;-80
2022/07/06 02:02:18;;;;;;;8.13;5.10;;;;;;;12.34;77.28;101725.88;5120883;28;20086;-79
2022/07/06 02:04:45;;;;;;;7.95;5.70;;;;;;;12.26;77.58;101716.94;5120102;28;20075;-80
2022/07/06 02:07:11;;;;;;;7.57;5.20;;;;;;;12.15;77.94;101727.59;5119834;28;20089;-82
2022/07/06 02:09:38;;;;;;;10.30;5.35;;;;;;;12.18;78.21;101731.72;5121020;28;20044;-80
2022/07/06 02:12:07;;;;;;;8.02;4.90;;;;;;;12.08;78.66;101728.28;5121897;28;20079;-80
2022/07/06 02:14:33;;;;;;;6.70;4.90;;;;;;;12.11;78.08;101728.00;5121746;28;20087;-80
2022/07/06 02:17:00;;;;;;;7.00;5.00;;;;;;;12.07;78.75;101732.69;5122541;28;20043;-82
2022/07/06 02:19:27;;;;;;;8.30;5.10;;;;;;;12.00;79.05;101742.09;5120307;28;20075;-79
2022/07/06 02:21:53;;;;;;;7.43;4.85;;;;;;;11.99;78.76;101734.34;5120330;28;20082;-79
2022/07/06 02:24:20;;;;;;;7.50;5.03;;;;;;;11.96;79.27;101740.69;5120643;28;20075;-79
2022/07/06 02:26:46;;;;;;;8.27;5.05;;;;;;;12.02;79.10;101734.91;5120611;28;20043;-81
2022/07/06 02:29:14;;;;;;;6.45;5.10;;;;;;;11.98;79.27;101735.31;5119527;28;20075;-80
2022/07/06 02:34:55;;;;;;;8.02;4.80;;;;;;;11.86;79.47;101729.38;5074145;28;20052;-83
2022/07/06 02:37:32;;;;;;;7.78;4.93;;;;;;;11.93;79.35;101743.59;5053366;28;20090;-83
2022/07/06 02:40:02;;;;;;;7.13;5.15;;;;;;;11.88;79.65;101735.31;5059170;28;20098;-83
2022/07/06 02:42:29;;;;;;;7.35;4.35;;;;;;;11.88;79.84;101733.53;5061454;28;20068;-84
2022/07/06 02:44:59;;;;;;;9.30;4.97;;;;;;;11.92;79.88;101739.31;5062041;28;20318;-83
2022/07/06 02:47:26;;;;;;;9.45;5.35;;;;;;;11.68;79.89;101715.28;5065218;28;20044;-82
2022/07/06 02:50:30;;;;;;;7.60;4.97;;;;;;;11.74;79.98;101733.91;5066162;28;20053;-82
2022/07/06 02:53:05;;;;;;;7.18;4.95;;;;;;;11.70;80.32;101743.00;5057650;28;20452;-82
2022/07/06 02:55:41;;;;;;;8.07;4.80;;;;;;;11.58;80.42;101734.44;5071184;28;20044;-82
2022/07/06 02:58:17;;;;;;;9.32;5.70;;;;;;;11.56;81.03;101744.22;5086381;28;20068;-82
2022/07/06 03:00:49;;;;;;;8.77;5.15;;;;;;;11.50;80.98;101744.75;5085008;28;20506;-82
2022/07/06 03:03:19;;;;;;;13.53;6.40;;;;;;;11.58;81.21;101752.78;5084307;28;20080;-83
2022/07/06 03:05:55;;;;;;;9.85;6.57;;;;;;;11.62;81.24;101748.09;5086111;28;20101;-83
2022/07/06 03:08:39;;;;;;;6.68;5.00;;;;;;;11.63;81.13;101750.59;5085588;28;20045;-83
2022/07/06 03:11:10;;;;;;;9.02;5.13;;;;;;;11.60;80.80;101745.63;5085935;28;20052;-84
2022/07/06 03:13:55;;;;;;;7.47;4.95;;;;;;;11.61;80.46;101735.97;5085225;28;20060;-83
2022/07/06 03:30:53;;;;;;;7.97;5.32;;;;;;;11.20;81.93;101748.28;4877605;29;20067;-82
2022/07/06 03:44:36;;;;;;;12.80;5.72;;;;;;;11.25;82.94;101785.41;5023722;22;20308;-80
2022/07/06 03:47:03;;;;;;;7.47;5.38;;;;;;;11.34;83.18;101781.16;5106974;28;20097;-79
2022/07/06 03:49:30;;;;;;;7.78;5.65;;;;;;;11.30;82.93;101785.00;5108457;28;20086;-78
2022/07/06 03:51:57;;;;;;;9.73;6.00;;;;;;;11.27;83.22;101785.25;5105023;28;20103;-78
2022/07/06 03:54:23;;;;;;;10.85;6.38;;;;;;;11.24;83.66;101785.53;5103222;28;20083;-77
2022/07/06 03:56:51;;;;;;;9.68;5.97;;;;;;;11.31;83.63;101781.41;5103589;28;20062;-78
2022/07/06 03:59:18;;;;;;;9.43;5.43;;;;;;;11.26;83.59;101784.44;5101974;28;20475;-79
2022/07/06 04:01:45;;;;;;;10.98;5.43;;;;;;;11.41;83.46;101799.78;5102178;28;20070;-78
2022/07/06 04:04:11;;;;;;;8.88;5.60;;;;;;;11.33;83.57;101792.59;5103605;28;20520;-81
2022/07/06 04:06:38;;;;;;;10.07;6.63;;;;;;;11.32;83.96;101785.69;5102822;28;20068;-79
2022/07/06 04:09:05;;;;;;;9.02;6.13;;;;;;;11.35;83.54;101788.03;5101897;28;20138;-81
2022/07/06 04:11:31;;;;;;;8.15;5.82;;;;;;;11.26;83.90;101800.16;5100523;28;20130;-81
2022/07/06 04:13:59;;;;;;;7.95;5.53;;;;;;;11.30;84.17;101795.47;5101131;28;20130;-79
2022/07/06 04:16:26;;;;;;;9.68;6.22;;;;;;;11.37;83.86;101790.50;5101072;28;20083;-79
2022/07/06 04:18:52;;;;;;;8.82;5.85;;;;;;;11.59;83.35;101798.19;5102091;28;20071;-79
2022/07/06 04:21:19;;;;;;;9.90;6.75;;;;;;;11.67;83.14;101789.66;5102742;28;20075;-81
2022/07/06 04:23:46;;;;;;;8.10;6.28;;;;;;;12.08;81.37;101773.72;5103731;28;20051;-80
2022/07/06 04:26:12;;;;;;;10.07;5.90;;;;;;;12.38;80.38;101761.38;5103017;28;20055;-81
2022/07/06 04:28:39;;;;;;;12.25;6.00;;;;;;;12.86;78.44;101777.03;5102026;28;20131;-80
2022/07/06 04:31:07;;;;;;;7.32;5.60;;;;;;;13.38;76.20;101783.50;5102900;28;20236;-80
2022/07/06 04:33:35;;;;;;;8.05;5.68;;;;;;;13.76;74.83;101789.50;5101613;28;20137;-80
2022/07/06 04:36:01;;;;;;;8.80;5.30;;;;;;;13.95;73.70;101784.94;5100498;28;20087;-80
2022/07/06 04:38:28;;;;;;;9.90;5.75;;;;;;;14.12;73.08;101788.56;5100583;28;20071;-80
2022/07/06 04:40:54;;;;;;;13.35;5.93;;;;;;;14.22;72.45;101788.47;5100359;28;20079;-79
2022/07/06 04:43:21;;;;;;;9.20;5.93;;;;;;;14.37;72.17;101800.13;5099931;28;20131;-81
2022/07/06 04:45:48;;;;;;;8.63;5.28;;;;;;;14.49;72.01;101795.47;5101943;28;20077;-82
2022/07/06 04:48:16;;;;;;;11.13;5.45;;;;;;;14.94;70.96;101798.72;5102985;28;20048;-81
2022/07/06 04:50:43;;;;;;;8.00;4.90;;;;;;;15.78;67.72;101800.56;5103221;28;20071;-80
2022/07/06 04:53:10;;;;;;;9.73;5.00;;;;;;;15.60;67.19;101800.69;5101876;28;20106;-82
2022/07/06 04:55:37;;;;;;;8.15;5.22;;;;;;;15.31;68.90;101797.59;5103881;28;20131;-83
2022/07/06 04:58:03;;;;;;;10.23;5.03;;;;;;;15.54;68.89;101797.84;5120714;28;20134;-84
2022/07/06 05:00:31;;;;;;;8.63;5.10;;;;;;;15.99;67.13;101797.50;5122207;28;20047;-81
2022/07/06 05:02:57;;;;;;;10.15;5.28;;;;;;;16.16;66.97;101793.03;5122523;28;20071;-83
2022/07/06 05:05:26;;;;;;;7.43;4.65;;;;;;;16.60;65.69;101796.16;5120731;28;20135;-81
2022/07/06 05:07:52;;;;;;;9.25;4.85;;;;;;;16.95;64.20;101788.84;5123361;28;20082;-82
2022/07/06 05:10:19;;;;;;;9.05;5.60;;;;;;;17.04;63.75;101799.22;5120849;28;20075;-81
2022/07/06 05:12:45;;;;;;;9.65;5.55;;;;;;;16.84;64.18;101796.16;5121780;28;20047;-82
2022/07/06 05:15:12;;;;;;;9.30;5.03;;;;;;;16.81;64.86;101796.47;5121376;28;20166;-84
2022/07/06 05:17:39;;;;;;;8.25;4.90;;;;;;;17.34;63.24;101794.16;5120490;28;20079;-83
2022/07/06 05:20:07;;;;;;;6.63;4.57;;;;;;;17.69;61.92;101803.44;5124190;28;20051;-82
2022/07/06 05:22:35;;;;;;;8.30;4.43;;;;;;;17.83;61.70;101810.66;5122674;28;20487;-83
2022/07/06 05:25:04;;;;;;;11.45;4.30;;;;;;;18.79;58.72;101812.72;5129720;28;20051;-83
2022/07/06 05:27:31;;;;;;;9.10;4.00;;;;;;;19.40;56.20;101815.97;5131495;28;20048;-84
2022/07/06 05:29:57;;;;;;;6.90;4.25;;;;;;;19.45;56.19;101811.75;5127385;28;20056;-81
2022/07/06 05:32:24;;;;;;;6.65;3.70;;;;;;;18.78;57.44;101806.59;5121631;28;20054;-81
2022/07/06 05:34:51;;;;;;;8.32;4.20;;;;;;;17.67;61.05;101806.25;5120832;28;20467;-80
2022/07/06 05:37:17;;;;;;;8.25;4.20;;;;;;;17.11;63.81;101800.19;5121699;28;20166;-82
2022/07/06 05:39:47;;;;;;;7.95;3.85;;;;;;;17.06;64.36;101805.16;5121541;28;20079;-83
2022/07/06 05:42:13;;;;;;;8.40;4.07;;;;;;;16.98;64.67;101797.28;5123486;28;20134;-83
2022/07/06 05:44:40;;;;;;;6.70;3.65;;;;;;;16.95;64.14;101802.06;5126138;28;20073;-83
2022/07/06 05:52:35;;;;;;;9.63;4.43;;;;;;;16.42;66.96;101814.84;5127037;28;20082;-83
2022/07/06 05:55:03;;;;;;;8.13;4.13;;;;;;;17.02;65.44;101813.59;5122453;28;20070;-83
2022/07/06 05:57:30;;;;;;;9.93;4.07;;;;;;;18.12;63.04;101823.19;5120478;28;20102;-82
2022/07/06 05:59:56;;;;;;;7.72;3.92;;;;;;;18.24;60.31;101822.59;5121176;28;20047;-84
2022/07/06 06:02:23;;;;;;;8.95;3.70;;;;;;;18.51;59.43;101820.38;5121070;28;20078;-83
2022/07/06 06:04:50;;;;;;;6.53;3.42;;;;;;;19.44;56.40;101826.03;5122919;28;20071;-82
2022/07/06 06:07:17;;;;;;;4.30;3.33;;;;;;;19.94;54.61;101835.03;5122273;28;20075;-81
2022/07/06 06:09:44;;;;;;;8.27;3.47;;;;;;;19.97;54.72;101834.66;5122302;28;20110;-82
2022/07/06 06:12:12;;;;;;;8.40;3.53;;;;;;;20.04;53.24;101832.06;5123461;28;20112;-83
2022/07/06 06:14:39;;;;;;;7.70;3.38;;;;;;;19.55;54.29;101835.41;5122938;28;20488;-83
2022/07/06 06:17:08;;;;;;;8.23;3.38;;;;;;;20.23;52.80;101833.28;5122833;28;20044;-84
2022/07/06 06:19:36;;;;;;;9.25;3.53;;;;;;;20.32;51.34;101835.59;5122222;28;20071;-82
2022/07/06 06:22:03;;;;;;;8.55;3.50;;;;;;;21.08;49.90;101839.28;5121566;28;20057;-84
2022/07/06 06:24:29;;;;;;;7.82;3.83;;;;;;;21.02;50.55;101839.22;5123224;28;20122;-82
2022/07/06 06:26:57;;;;;;;8.23;3.40;;;;;;;21.40;49.71;101843.16;5120070;28;20112;-81
2022/07/06 06:29:25;;;;;;;7.93;3.50;;;;;;;21.06;50.76;101837.81;5120184;28;20093;-82
2022/07/06 06:31:52;;;;;;;6.60;2.97;;;;;;;22.26;49.13;101842.59;5121511;28;20075;-82
2022/07/06 06:34:19;;;;;;;8.48;3.45;;;;;;;22.58;46.79;101851.63;5119106;28;20090;-83
2022/07/06 06:36:45;;;;;;;5.40;3.47;;;;;;;22.47;47.02;101847.72;5118588;28;20077;-81
2022/07/06 06:39:12;;;;;;;9.00;3.08;;;;;;;21.55;48.14;101836.88;5132379;28;20114;-85
2022/07/06 06:41:38;;;;;;;7.13;3.28;;;;;;;20.94;49.90;101845.53;5134196;28;20039;-82
2022/07/06 06:44:05;;;;;;;9.52;3.17;;;;;;;21.37;49.41;101846.19;5132459;28;20058;-82
2022/07/06 06:46:33;;;;;;;9.73;3.40;;;;;;;20.70;51.01;101849.47;5130176;28;20054;-81
2022/07/06 06:49:00;;;;;;;7.30;3.45;;;;;;;21.40;50.20;101845.81;5120575;28;20087;-81
2022/07/06 06:51:27;;;;;;;7.72;3.88;;;;;;;21.13;50.32;101847.50;5121978;28;20058;-81
2022/07/06 06:53:53;;;;;;;6.80;4.25;;;;;;;19.92;54.04;101841.53;5122040;28;20063;-82
2022/07/06 06:56:20;;;;;;;15.60;4.45;;;;;;;19.85;54.23;101834.31;5111664;28;20232;-82
2022/07/06 06:58:47;;;;;;;9.68;3.63;;;;;;;20.12;53.26;101845.22;5101714;28;20501;-84
2022/07/06 07:01:13;;;;;;;9.27;3.22;;;;;;;20.10;53.88;101847.25;5099700;28;20070;-82
2022/07/06 07:03:41;;;;;;;11.27;3.88;;;;;;;20.07;53.38;101840.47;5099467;28;20146;-83
2022/07/06 07:06:08;;;;;;;4.90;3.13;;;;;;;20.02;52.93;101845.53;5100492;28;20086;-81
2022/07/06 07:08:35;;;;;;;9.07;3.80;;;;;;;19.70;53.37;101844.16;5098461;28;20143;-83
2022/07/06 07:11:01;;;;;;;4.75;2.88;;;;;;;20.06;52.98;101848.63;5098432;28;20091;-84
2022/07/06 07:13:28;;;;;;;5.45;3.00;;;;;;;20.18;52.23;101845.28;5100594;28;20086;-82
2022/07/06 07:15:55;;;;;;;4.47;2.72;;;;;;;19.65;53.16;101843.06;5098211;28;20079;-83
2022/07/06 07:18:24;;;;;;;6.63;2.55;;;;;;;20.46;53.04;101839.22;5098492;28;20090;-83
2022/07/06 07:20:52;;;;;;;7.30;3.10;;;;;;;21.15;49.64;101849.97;5097295;28;20071;-83
2022/07/06 07:23:18;;;;;;;8.85;2.50;;;;;;;21.65;48.50;101856.78;5098103;28;20083;-83
2022/07/06 07:25:45;;;;;;;3.47;2.05;;;;;;;21.13;49.20;101854.66;5099716;28;20104;-84
2022/07/06 07:28:11;;;;;;;4.93;2.10;;;;;;;20.85;50.46;101854.66;5103382;28;20078;-84
2022/07/06 07:30:40;;;;;;;4.55;2.30;;;;;;;20.08;52.26;101852.75;5102853;28;20567;-83
2022/07/06 07:33:07;;;;;;;5.43;2.67;;;;;;;20.23;52.23;101846.56;5106576;28;20080;-83
2022/07/06 07:35:34;;;;;;;7.75;2.78;;;;;;;20.85;50.16;101859.97;5092947;28;20110;-84
2022/07/06 07:38:03;;;;;;;5.72;2.67;;;;;;;20.47;51.29;101857.66;5096805;28;20108;-83
2022/07/06 07:40:29;;;;;;;7.03;2.70;;;;;;;20.87;50.45;101855.28;5091155;28;20056;-82
2022/07/06 07:42:56;;;;;;;6.35;2.70;;;;;;;20.59;50.96;101863.28;5081910;28;20048;-81
2022/07/06 07:45:23;;;;;;;7.22;2.40;;;;;;;20.56;50.84;101853.03;5083657;28;20080;-82
2022/07/06 07:47:49;;;;;;;6.07;2.53;;;;;;;20.55;50.97;101843.41;5108219;28;20048;-81
2022/07/06 07:50:16;;;;;;;5.80;2.45;;;;;;;20.15;51.99;101851.00;5099246;28;20044;-83
2022/07/06 07:52:42;;;;;;;4.22;2.25;;;;;;;20.01;51.98;101843.06;5094948;28;20108;-82
2022/07/06 07:55:11;;;;;;;4.65;3.33;;;;;;;20.44;50.31;101858.03;5106752;28;20055;-83
2022/07/06 07:57:38;;;;;;;3.72;2.20;;;;;;;20.33;51.47;101860.34;5104223;28;20099;-82
2022/07/06 08:00:06;;;;;;;4.20;2.13;;;;;;;19.97;51.47;101855.06;5104005;28;20079;-82
2022/07/06 08:02:32;;;;;;;6.47;2.28;;;;;;;19.96;52.17;101859.56;5106048;28;20052;-81
2022/07/06 08:05:01;;;;;;;5.63;2.70;;;;;;;19.64;52.99;101844.91;5105930;28;20416;-82
2022/07/06 08:07:28;;;;;;;5.82;2.00;;;;;;;19.37;53.45;101827.81;5108043;28;20058;-82
2022/07/06 08:10:03;;;;;;;4.97;2.22;;;;;;;19.30;53.71;101842.81;5107109;28;20070;-82
2022/07/06 08:12:34;;;;;;;6.28;2.35;;;;;;;18.98;53.98;101835.22;5107468;28;20164;-82
2022/07/06 08:15:00;;;;;;;5.38;1.90;;;;;;;18.93;53.83;101834.94;5108680;28;20052;-83
2022/07/06 08:17:27;;;;;;;7.90;2.40;;;;;;;18.56;53.58;101833.94;5108748;28;20466;-83
2022/07/06 08:20:00;;;;;;;7.03;2.10;;;;;;;18.35;55.38;101837.28;5109092;28;20177;-82
2022/07/06 08:22:29;;;;;;;3.00;1.92;;;;;;;18.45;55.77;101826.41;5109925;28;20093;-82
2022/07/06 08:24:57;;;;;;;3.85;2.33;;;;;;;18.55;54.90;101819.84;5108665;28;20059;-82
2022/07/06 08:27:36;;;;;;;5.53;2.13;;;;;;;18.30;54.71;101825.56;5109116;28;20058;-82
2022/07/06 08:30:16;;;;;;;4.10;1.60;;;;;;;18.18;54.09;101841.84;5109582;28;20130;-81
2022/07/06 08:32:49;;;;;;;5.30;2.13;;;;;;;17.99;54.86;101820.28;5109343;28;20044;-82
2022/07/06 08:35:33;;;;;;;3.50;1.83;;;;;;;17.96;53.62;101813.53;5109200;28;20052;-81
2022/07/06 08:37:59;;;;;;;5.53;1.80;;;;;;;18.22;53.16;101845.81;5108263;28;20052;-82
2022/07/06 08:40:32;;;;;;;3.38;2.13;;;;;;;18.59;52.98;101844.19;5108498;28;20044;-82
2022/07/06 08:43:00;;;;;;;2.70;1.90;;;;;;;18.50;53.56;101834.63;5108867;28;20059;-83
2022/07/06 08:45:28;;;;;;;3.67;2.13;;;;;;;18.85;53.01;101839.34;5108172;28;20082;-82
2022/07/06 08:47:56;;;;;;;3.45;2.00;;;;;;;18.88;53.32;101838.16;5104740;28;20079;-82
2022/07/06 08:50:22;;;;;;;3.50;2.00;;;;;;;18.37;53.68;101842.38;5104588;28;20052;-84
2022/07/06 08:52:49;;;;;;;4.40;2.25;;;;;;;18.47;54.38;101841.13;5105751;28;20080;-84
2022/07/06 08:55:18;;;;;;;5.40;2.40;;;;;;;18.51;54.94;101849.53;5106873;28;20389;-83
2022/07/06 08:57:46;;;;;;;6.68;2.15;;;;;;;18.53;54.32;101848.38;5107472;28;20055;-83
2022/07/06 09:00:16;;;;;;;6.18;2.33;;;;;;;18.36;54.46;101852.16;5108108;28;20087;-83
2022/07/06 09:02:44;;;;;;;3.85;2.20;;;;;;;18.51;54.89;101857.50;5104380;28;20048;-83
2022/07/06 09:05:14;;;;;;;2.97;1.83;;;;;;;18.45;54.50;101853.72;5104157;28;20086;-83
2022/07/06 09:07:41;;;;;;;6.70;2.28;;;;;;;18.45;54.73;101840.47;5105569;28;20131;-82
2022/07/06 09:10:09;;;;;;;3.42;1.75;;;;;;;18.34;55.34;101845.41;5105770;28;20044;-83
2022/07/06 09:12:36;;;;;;;4.25;2.20;;;;;;;18.41;55.99;101849.00;5103188;28;20043;-81
2022/07/06 09:15:03;;;;;;;4.80;2.28;;;;;;;18.45;55.18;101835.16;5099411;28;20083;-81
2022/07/06 09:17:32;;;;;;;5.40;1.70;;;;;;;18.26;55.67;101846.28;5100388;28;20091;-83
2022/07/06 09:19:58;;;;;;;4.32;2.10;;;;;;;18.37;55.03;101848.50;5103388;28;20044;-81
2022/07/06 09:22:31;;;;;;;6.88;2.45;;;;;;;18.43;55.82;101849.63;5102387;28;20116;-81
2022/07/06 09:25:06;;;;;;;6.25;2.22;;;;;;;18.44;56.07;101849.44;5102020;28;20048;-82
2022/07/06 09:27:37;;;;;;;4.70;2.20;;;;;;;18.39;56.65;101848.34;5100270;28;20201;-81
2022/07/06 09:30:05;;;;;;;5.90;2.28;;;;;;;18.61;55.32;101842.19;5099629;28;20052;-82
2022/07/06 09:32:39;;;;;;;6.53;1.88;;;;;;;18.56;56.37;101844.53;5100502;28;20044;-79
2022/07/06 09:35:06;;;;;;;3.72;2.30;;;;;;;18.53;56.18;101848.38;5101243;28;20092;-80
2022/07/06 09:37:33;;;;;;;6.68;2.75;;;;;;;18.64;56.72;101841.84;5102313;28;20079;-81
2022/07/06 09:40:00;;;;;;;4.38;2.55;;;;;;;18.61;56.34;101842.19;5102982;28;20079;-81
2022/07/06 09:42:27;;;;;;;5.15;2.25;;;;;;;18.98;55.30;101840.50;5101552;28;20078;-84
2022/07/06 09:45:26;;;;;;;7.13;2.70;;;;;;;19.18;54.93;101837.16;5123333;22;20030;-82
2022/07/06 09:48:21;;;;;;;7.90;2.58;;;;;;;19.77;53.36;101842.41;5072696;28;20048;-84
2022/07/06 09:51:02;;;;;;;5.93;2.22;;;;;;;19.94;52.80;101850.13;5082758;28;20052;-86
2022/07/06 09:54:04;;;;;;;4.78;2.95;;;;;;;20.21;51.23;101836.94;5093453;28;20064;-85
2022/07/06 09:56:39;;;;;;;4.15;2.63;;;;;;;20.67;49.51;101851.69;5094125;28;20066;-83
2022/07/06 09:59:18;;;;;;;4.40;2.47;;;;;;;20.52;49.75;101838.47;5080554;28;20044;-83
2022/07/06 10:02:02;;;;;;;;;;;;;;;;;;;;;
2022/07/06 10:04:43;;;;;;;4.57;2.33;;;;;;;20.69;49.43;101845.16;5082080;28;20053;-85
2022/07/06 10:07:14;;;;;;;4.95;3.15;;;;;;;20.28;48.87;101833.53;5086113;28;20052;-85
2022/07/06 10:09:47;;;;;;;3.63;1.77;;;;;;;20.70;47.81;101830.84;5081468;28;20068;-84
2022/07/06 10:12:27;;;;;;;3.92;2.28;;;;;;;21.17;47.43;101851.41;5079680;28;20059;-84
2022/07/06 10:14:56;;;;;;;5.35;2.13;;;;;;;20.61;47.49;101847.94;5078857;28;20488;-85
2022/07/06 10:17:25;;;;;;;4.13;2.00;;;;;;;20.45;47.15;101853.53;5079722;28;20048;-83
2022/07/06 10:20:03;;;;;;;5.55;2.30;;;;;;;20.88;46.70;101859.59;5080784;28;20048;-84
2022/07/06 10:22:49;;;;;;;5.60;2.17;;;;;;;21.39;46.92;101851.31;5079654;28;20041;-83
2022/07/06 10:25:22;;;;;;;5.85;2.47;;;;;;;21.35;45.48;101840.25;5080365;28;20105;-82
2022/07/06 10:27:57;;;;;;;5.28;2.13;;;;;;;21.24;46.28;101826.69;5080975;28;20135;-81
2022/07/06 10:30:25;;;;;;;3.95;1.88;;;;;;;21.76;45.38;101853.50;5080763;28;20063;-83
2022/07/06 10:33:00;;;;;;;3.65;1.85;;;;;;;21.13;45.00;101833.38;5082483;28;20166;-83
2022/07/06 10:35:32;;;;;;;3.97;2.10;;;;;;;20.91;45.19;101853.06;5080771;28;20076;-84
2022/07/06 10:38:08;;;;;;;5.25;2.00;;;;;;;21.01;44.52;101856.22;5079731;28;20044;-82
2022/07/06 10:43:21;;;;;;;5.05;1.95;;;;;;;21.00;43.17;101858.03;5080677;28;20105;-83
2022/07/06 10:45:52;;;;;;;6.78;1.92;;;;;;;20.21;43.80;101831.63;5079753;28;20063;-84
2022/07/06 10:48:20;;;;;;;3.58;1.95;;;;;;;20.49;44.38;101825.56;5080514;28;20091;-84
2022/07/06 10:50:51;;;;;;;7.80;2.30;;;;;;;21.23;42.87;101857.00;5082528;28;20114;-84
2022/07/06 10:53:22;;;;;;;3.63;1.77;;;;;;;21.27;42.17;101834.28;5081251;28;20481;-83
2022/07/06 10:55:51;;;;;;;4.43;2.00;;;;;;;21.54;42.48;101844.03;5081351;28;20049;-84
2022/07/06 10:58:40;;;;;;;3.72;2.10;;;;;;;22.09;40.89;101858.97;5083618;28;20070;-83
2022/07/06 11:01:08;;;;;;;4.22;2.05;;;;;;;21.74;41.43;101844.13;5089636;28;20074;-84
2022/07/06 11:03:41;;;;;;;4.53;2.03;;;;;;;22.40;41.68;101849.56;5093439;28;20056;-82
2022/07/06 11:06:17;;;;;;;2.08;1.80;;;;;;;21.98;41.65;101843.53;5092902;28;20102;-85
2022/07/06 11:08:55;;;;;;;4.32;2.33;;;;;;;21.65;42.58;101816.81;5091162;28;20056;-84
2022/07/06 11:11:24;;;;;;;3.40;1.98;;;;;;;21.96;41.98;101842.09;5088631;28;20074;-84
2022/07/06 11:13:56;;;;;;;3.50;2.58;;;;;;;21.17;44.21;101794.69;5086605;28;20048;-86
2022/07/06 11:16:33;;;;;;;;;;;;;;;21.36;43.93;101825.91;5087642;28;20061;-83
2022/07/06 11:19:03;;;;;;;3.13;2.30;;;;;;;22.12;43.44;101836.44;5092846;28;19920;-85
2022/07/06 11:21:37;;;;;;;5.88;2.42;;;;;;;21.99;42.57;101823.88;5092321;28;20044;-85
2022/07/06 11:24:06;;;;;;;3.22;2.05;;;;;;;22.13;41.45;101844.22;5091921;28;20052;-83
2022/07/06 11:26:36;;;;;;;4.15;2.05;;;;;;;22.18;42.50;101847.09;5090385;28;20063;-85
2022/07/06 11:29:06;;;;;;;6.22;2.83;;;;;;;22.23;43.32;101824.31;5086565;28;20049;-83
2022/07/06 11:31:36;;;;;;;5.63;2.10;;;;;;;21.63;42.72;101824.19;5084329;28;20045;-83
2022/07/06 11:34:03;;;;;;;7.38;2.70;;;;;;;21.76;43.01;101831.38;5087385;28;20040;-84
2022/07/06 11:36:34;;;;;;;4.72;2.60;;;;;;;21.73;41.88;101831.81;5087043;28;20056;-83
2022/07/06 11:39:01;;;;;;;3.92;2.47;;;;;;;21.61;41.88;101812.91;5084476;28;20075;-84
2022/07/06 11:41:28;;;;;;;5.75;2.83;;;;;;;21.86;43.31;101816.66;5082342;28;20291;-83
2022/07/06 11:43:54;;;;;;;3.10;2.35;;;;;;;22.13;40.81;101841.56;5084220;28;20056;-86
2022/07/06 11:46:26;;;;;;;3.67;2.25;;;;;;;21.69;41.57;101820.75;5085257;28;20057;-84
2022/07/06 11:48:55;;;;;;;4.70;3.20;;;;;;;22.00;42.20;101814.03;5085782;28;20048;-85
2022/07/06 11:51:23;;;;;;;2.70;2.30;;;;;;;22.13;42.02;101817.56;5084929;28;20075;-84
2022/07/06 11:53:53;;;;;;;8.75;3.10;;;;;;;22.23;41.43;101819.00;5086248;28;20063;-85
2022/07/06 11:56:27;;;;;;;4.80;2.30;;;;;;;22.52;40.85;101832.75;5085995;28;20500;-85
2022/07/06 11:58:57;;;;;;;4.28;2.40;;;;;;;23.04;40.39;101814.25;5080829;28;20055;-84
2022/07/06 12:01:26;;;;;;;4.25;2.20;;;;;;;23.19;40.46;101833.47;5082570;28;20060;-85
2022/07/06 12:03:53;;;;;;;4.22;2.25;;;;;;;23.78;39.83;101827.09;5080747;28;20045;-85
2022/07/06 12:06:21;;;;;;;3.70;2.50;;;;;;;24.17;37.91;101832.19;5081340;28;20488;-86
2022/07/06 12:08:51;;;;;;;6.35;2.63;;;;;;;23.59;37.56;101818.16;5080599;28;20048;-84
2022/07/06 12:11:21;;;;;;;3.40;2.13;;;;;;;23.20;38.81;101808.41;5079680;28;20052;-85
2022/07/06 12:13:48;;;;;;;7.00;2.50;;;;;;;22.74;38.11;101805.84;5077723;28;20104;-88